Nearby METAR Reports

 

KMTN - Baltimore/Martin, Maryland, USA
Distance from station: SSE 8mi, 13km
Updated: Fri, 06-Mar-2015 5:45am EST
Clear
Clear
 Wind from WNW
Wind: WNW 6 mph , 9 km/h
Temperature: 14°F , -10°C
Wind Chill: 5°F , -15°C
Dew Point: 5°F , -15°C
Humidity: 67%
Barometer: 30.57 inHg , 1035.2 hPa
Clouds: Clear
Visibility: 10 miles , 16 km
2015/03/06 10:45 KMTN 061045Z 30005KT 10SM SKC M10/M15 A3057 RMK FIRST
KDMH - Baltimore/Dwntwn, Maryland, USA
Distance from station: SW 12mi, 19km
Updated: Fri, 06-Mar-2015 5:54am EST

 
Temperature: 16°F , -9°C
Dew Point: 1°F , -17°C
Humidity: 53%
Barometer: 30.56 inHg , 1034.9 hPa
2015/03/06 10:54 KDMH 061054Z AUTO M09/M17 A3056 RMK AO1 SLP349 T10941172
 
KBWI - Balto/Wash Intl, Maryland, USA
Distance from station: SSW 20mi, 33km
Updated: Fri, 06-Mar-2015 5:54am EST
Few Clouds
Few Clouds
 Wind from NW
Wind: NW 7 mph , 11 km/h
Temperature: 10°F , -12°C
Wind Chill: -1°F , -18°C
Dew Point: 1°F , -17°C
Humidity: 67%
Barometer: 30.55 inHg , 1034.5 hPa
Clouds: Few Clouds
Visibility: 10 miles , 16 km
Cloud details: Few Clouds 4000 ft
2015/03/06 10:54 KBWI 061054Z 32006KT 10SM FEW040 M12/M17 A3055 RMK AO2 SLP348 T11221167
KDMW - Carroll Cnty, Maryland, USA
Distance from station: WNW 30mi, 48km
Updated: Fri, 06-Mar-2015 5:45am EST
Clear
Clear
 Wind from N
Wind: N 3 mph , 6 km/h
Temperature: 5°F , -15°C
Dew Point: -2°F , -19°C
Humidity: 72%
Barometer: 30.50 inHg , 1032.8 hPa
Clouds: Clear
Visibility: 10 miles , 16 km
2015/03/06 10:45 KDMW 061045Z AUTO 35003KT 10SM CLR M15/M19 A3050 RMK AO2
 
KNAK - Annapolis/Naval, Maryland, USA
Distance from station: S 30mi, 48km
Updated: Fri, 06-Mar-2015 5:54am EST
Clear
Clear
 Wind from NNW
Wind: NNW 9 mph , 15 km/h
Temperature: 16°F , -9°C
Wind Chill: 5°F , -15°C
Dew Point: 7°F , -14°C
Humidity: 67%
Barometer: 30.56 inHg , 1034.9 hPa
Clouds: Clear
Visibility: 10 miles , 16 km
2015/03/06 10:54 KNAK 061054Z AUTO 33008KT 10SM CLR M09/M14 A3056 RMK AO2 SLP350 T10891139
KW29 - Stevensville, Maryland, USA
Distance from station: SSE 31mi, 50km
Updated: Fri, 06-Mar-2015 5:46am EST

 Wind from N
Wind: N 8 mph , 13 km/h, Gust: 17 mph , 28 km/h
Temperature: 18°F , -8°C
Wind Chill: 8°F , -13°C
Dew Point: 5°F , -15°C
Humidity: 58%
Barometer: 30.56 inHg , 1034.9 hPa
Visibility: 10 miles , 16 km
2015/03/06 10:46 KW29 061046Z AUTO 36007G15KT 10SM M08/M15 A3056 RMK AO1
 
KCGS - College Park, Maryland, USA
Distance from station: SW 38mi, 61km
Updated: Fri, 06-Mar-2015 5:45am EST
Clear
Clear
 Wind from calm
Wind: Calm
Temperature: 14°F , -10°C
Dew Point: 3°F , -16°C
Humidity: 62%
Barometer: 30.56 inHg , 1034.9 hPa
Clouds: Clear
Visibility: 10 miles , 16 km
2015/03/06 10:45 KCGS 061045Z AUTO 00000KT 10SM CLR M10/M16 A3056 RMK AO1
KGAI - Gaithersburg, Maryland, USA
Distance from station: WSW 40mi, 65km
Updated: Fri, 06-Mar-2015 5:55am EST
Clear
Clear
 Wind from NW
Wind: NW 3 mph , 6 km/h
Temperature: 5°F , -15°C
Dew Point: -6°F , -21°C
Humidity: 60%
Barometer: 30.57 inHg , 1035.2 hPa
Clouds: Clear
Visibility: 10 miles , 16 km
2015/03/06 10:55 KGAI 061055Z AUTO 32003KT 10SM CLR M15/M21 A3057 RMK AO1
 
KTHV - York, Pennsylvania, USA
Distance from station: NNW 40mi, 65km
Updated: Fri, 06-Mar-2015 5:53am EST
Clear
Clear
 Wind from calm
Wind: Calm
Temperature: -8°F , -22°C
Dew Point: -11°F , -24°C
Humidity: 84%
Barometer: 30.54 inHg , 1034.2 hPa
Clouds: Clear
Visibility: 10 miles , 16 km
2015/03/06 10:53 KTHV 061053Z AUTO 00000KT 10SM CLR M22/M24 A3054 RMK AO2 SLP356 T12171244
KFDK - Frederick, Maryland, USA
Distance from station: W 47mi, 75km
Updated: Fri, 06-Mar-2015 5:25am EST
Haze, Overcast
Haze, Overcast
 Wind from calm
Wind: Calm
Temperature: 1°F , -17°C
Dew Point: -4°F , -20°C
Humidity: 78%
Barometer: 30.59 inHg , 1035.9 hPa
Summary: Haze
Clouds: Overcast
Visibility: 1 3/4 miles , 5 km
Cloud details: Overcast 700 ft
2015/03/06 10:25 KFDK 061025Z AUTO 00000KT 1 3/4SM HZ VV007 M17/M20 A3059 RMK AO2 VIS 1/2V5
 
KESN - Easton/Newnam, Maryland, USA
Distance from station: SSE 48mi, 78km
Updated: Fri, 06-Mar-2015 5:51am EST
Clear
Clear
 Wind from NNE
Wind: NNE 7 mph , 11 km/h
Temperature: 16°F , -9°C
Wind Chill: 6°F , -14°C
Dew Point: 7°F , -14°C
Humidity: 67%
Barometer: 30.57 inHg , 1035.2 hPa
Clouds: Clear
Visibility: 10 miles , 16 km
2015/03/06 10:51 KESN 061051Z AUTO 02006KT 10SM CLR M09/M14 A3057 RMK AO2 T10911140
KDCA - Washington/Natl, Washington D.c., USA
Distance from station: SW 49mi, 79km
Updated: Fri, 06-Mar-2015 5:52am EST
Clear
Clear
 Wind from NNW
Wind: NNW 13 mph , 20 km/h
Temperature: 16°F , -9°C
Wind Chill: 2°F , -17°C
Dew Point: 1°F , -17°C
Humidity: 53%
Barometer: 30.58 inHg , 1035.6 hPa
Clouds: Clear
Visibility: 10 miles , 16 km
2015/03/06 10:52 KDCA 061052Z 33011KT 10SM CLR M09/M17 A3058 RMK AO2 SLP352 T10891172
 
KLNS - Lancaster, Pennsylvania, USA
Distance from station: N 49mi, 79km
Updated: Fri, 06-Mar-2015 5:53am EST
Clear
Clear
 Wind from WNW
Wind: WNW 6 mph , 9 km/h
Temperature: -0°F , -18°C
Wind Chill: -12°F , -24°C
Dew Point: -6°F , -21°C
Humidity: 78%
Barometer: 30.54 inHg , 1034.2 hPa
Clouds: Clear
Visibility: 10 miles , 16 km
2015/03/06 10:53 KLNS 061053Z 29005KT 10SM CLR M18/M21 A3054 RMK AO2 SLP350 T11781211
KILG - Wilmington, Delaware, USA
Distance from station: ENE 50mi, 81km
Updated: Fri, 06-Mar-2015 5:51am EST
Clear
Clear
 Wind from NW
Wind: NW 3 mph , 6 km/h
Temperature: 9°F , -13°C
Dew Point: -0°F , -18°C
Humidity: 66%
Barometer: 30.55 inHg , 1034.5 hPa
Clouds: Clear
Visibility: 10 miles , 16 km
2015/03/06 10:51 KILG 061051Z 32003KT 10SM CLR M13/M18 A3055 RMK AO2 SLP347 T11331178